createdAt,value
2018-07-23T00:01:03.578Z,19.58
2018-07-23T00:06:03.680Z,19.58
2018-07-23T00:11:03.312Z,19.08
2018-07-23T00:16:03.567Z,19.18
2018-07-23T00:21:03.077Z,18.88
2018-07-23T00:26:03.283Z,18.68
2018-07-23T00:31:03.579Z,18.78
2018-07-23T00:36:04.031Z,19.68
2018-07-23T00:41:03.600Z,19.28
2018-07-23T00:46:03.882Z,19.18
2018-07-23T00:51:03.409Z,19.57
2018-07-23T00:56:03.632Z,18.78
2018-07-23T01:01:03.902Z,18.28
2018-07-23T01:06:03.396Z,17.78
2018-07-23T01:11:02.968Z,17.88
2018-07-23T01:16:03.256Z,18.08
2018-07-23T01:21:03.777Z,18.78
2018-07-23T01:26:03.101Z,18.48
2018-07-23T01:31:03.259Z,18.68
2018-07-23T01:36:03.781Z,18.58
2018-07-23T01:41:03.469Z,18.08
2018-07-23T01:46:03.726Z,18.08
2018-07-23T01:51:03.117Z,17.98
2018-07-23T01:56:03.335Z,18.28
2018-07-23T02:01:03.593Z,18.58
2018-07-23T02:06:03.494Z,18.58
2018-07-23T02:11:03.684Z,17.98
2018-07-23T02:16:02.988Z,17.98
2018-07-23T02:21:03.941Z,18.58
2018-07-23T02:26:03.731Z,18.28
2018-07-23T02:31:03.042Z,18.38
2018-07-23T02:36:03.520Z,18.28
2018-07-23T02:41:03.123Z,17.98
2018-07-23T02:46:03.388Z,17.88
2018-07-23T02:51:03.927Z,18.08
2018-07-23T02:56:04.138Z,17.78
2018-07-23T03:01:03.798Z,18.48
2018-07-23T03:06:03.869Z,18.77
2018-07-23T03:11:03.488Z,18.68
2018-07-23T03:16:03.702Z,17.98
2018-07-23T03:21:03.264Z,17.58
2018-07-23T03:26:03.839Z,17.98
2018-07-23T03:31:03.722Z,18.48
2018-07-23T03:36:03.239Z,17.88
2018-07-23T03:41:03.779Z,18.38
2018-07-23T03:46:03.109Z,18.88
2018-07-23T03:51:03.553Z,18.68
2018-07-23T03:56:03.762Z,17.78
2018-07-23T04:01:03.012Z,17.88
2018-07-23T04:06:03.511Z,18.18
2018-07-23T04:11:03.120Z,18.88
2018-07-23T04:16:03.413Z,18.68
2018-07-23T04:21:03.868Z,17.98
2018-07-23T04:26:03.361Z,18.08
2018-07-23T04:31:03.631Z,18.78
2018-07-23T04:36:03.204Z,18.98
2018-07-23T04:41:03.711Z,18.68
2018-07-23T04:46:02.994Z,18.18
2018-07-23T04:51:03.492Z,17.58
2018-07-23T04:56:03.747Z,17.18
2018-07-23T05:01:02.966Z,18.08
2018-07-23T05:06:03.458Z,18.48
2018-07-23T05:11:03.069Z,18.68
2018-07-23T05:16:03.561Z,18.58
2018-07-23T05:21:03.825Z,18.78
2018-07-23T05:26:03.098Z,18.88
2018-07-23T05:31:03.341Z,18.98
2018-07-23T05:36:03.841Z,18.78
2018-07-23T05:41:03.426Z,18.78
2018-07-23T05:46:03.722Z,19.08
2018-07-23T05:51:03.152Z,19.08
2018-07-23T05:56:03.371Z,19.38
2018-07-23T06:01:03.662Z,19.28
2018-07-23T06:06:03.154Z,19.38
2018-07-23T06:11:03.749Z,19.28
2018-07-23T06:16:03.031Z,19.48
2018-07-23T06:21:03.485Z,19.57
2018-07-23T06:26:03.716Z,19.48
2018-07-23T06:31:02.993Z,19.38
2018-07-23T06:36:03.494Z,19.57
2018-07-23T06:41:03.056Z,19.57
2018-07-23T06:46:03.325Z,19.89
2018-07-23T06:51:03.820Z,20.07
2018-07-23T06:56:02.990Z,20.02
2018-07-23T07:01:03.260Z,20.11
2018-07-23T07:06:03.773Z,19.99
2018-07-23T07:11:03.376Z,20.27
2018-07-23T07:16:03.659Z,20.29
2018-07-23T07:21:03.185Z,20.32
2018-07-23T07:26:03.382Z,20.30
2018-07-23T07:31:03.703Z,20.05
2018-07-23T07:36:03.180Z,20.35
2018-07-23T07:41:03.713Z,20.56
2018-07-23T07:46:03.012Z,20.61
2018-07-23T07:51:03.451Z,20.59
2018-07-23T07:56:03.710Z,20.73
2018-07-23T08:01:02.991Z,20.92
2018-07-23T08:06:03.438Z,21.13
2018-07-23T08:11:03.080Z,21.20
2018-07-23T08:16:03.391Z,21.16
2018-07-23T08:21:03.866Z,21.24
2018-07-23T08:26:03.069Z,21.66
2018-07-23T08:31:03.782Z,21.67
2018-07-23T08:36:03.824Z,21.82
2018-07-23T08:41:03.383Z,22.16
2018-07-23T08:46:03.683Z,22.09
2018-07-23T08:51:03.172Z,22.61
2018-07-23T08:56:03.578Z,22.65
2018-07-23T09:01:03.644Z,22.71
2018-07-23T09:06:03.135Z,22.95
2018-07-23T09:11:03.723Z,22.96
2018-07-23T09:16:02.998Z,23.19
2018-07-23T09:21:03.461Z,23.53
2018-07-23T09:26:03.775Z,23.49
2018-07-23T09:31:03.245Z,23.75
2018-07-23T09:36:03.487Z,23.45
2018-07-23T09:41:03.060Z,23.98
2018-07-23T09:46:03.363Z,24.02
2018-07-23T09:51:03.814Z,23.92
2018-07-23T09:56:03.043Z,23.96
2018-07-23T10:01:03.365Z,23.68
2018-07-23T10:06:03.819Z,24.64
2018-07-23T10:11:04.278Z,24.71
2018-07-23T10:16:03.692Z,24.71
2018-07-23T10:21:03.200Z,24.62
2018-07-23T10:26:03.421Z,23.90
2018-07-23T10:31:03.730Z,24.70
2018-07-23T10:36:03.167Z,24.59
2018-07-23T10:41:03.878Z,24.97
2018-07-23T10:46:03.082Z,24.74
2018-07-23T10:51:03.905Z,24.63
2018-07-23T10:56:04.189Z,24.78
2018-07-23T11:01:03.063Z,25.08
2018-07-23T11:06:03.541Z,25.23
2018-07-23T11:11:03.205Z,25.48
2018-07-23T11:16:03.425Z,25.28
2018-07-23T11:21:03.920Z,25.37
2018-07-23T11:26:03.171Z,24.08
2018-07-23T11:31:03.442Z,25.01
2018-07-23T11:36:03.943Z,24.59
2018-07-23T11:41:03.521Z,25.00
2018-07-23T11:46:04.210Z,25.32
2018-07-23T11:51:03.324Z,25.52
2018-07-23T11:56:03.523Z,25.73
2018-07-23T12:01:03.791Z,25.58
2018-07-23T12:06:03.262Z,25.94
2018-07-23T12:11:03.847Z,26.14
2018-07-23T12:16:03.123Z,25.96
2018-07-23T12:21:03.632Z,26.01
2018-07-23T12:26:04.042Z,25.51
2018-07-23T12:31:03.119Z,26.42
2018-07-23T12:36:03.641Z,25.23
2018-07-23T12:41:03.213Z,25.54
2018-07-23T12:46:03.522Z,25.69
2018-07-23T12:51:03.961Z,25.50
2018-07-23T12:56:03.179Z,25.19
2018-07-23T13:01:03.439Z,25.40
2018-07-23T13:06:03.923Z,25.05
2018-07-23T13:11:03.543Z,24.32
2018-07-23T13:16:03.759Z,25.30
2018-07-23T13:21:03.283Z,25.89
2018-07-23T13:26:03.509Z,25.77
2018-07-23T13:31:03.757Z,25.90
2018-07-23T13:36:03.236Z,25.59
2018-07-23T13:41:03.793Z,25.38
2018-07-23T13:46:03.100Z,25.97
2018-07-23T13:51:03.702Z,25.13
2018-07-23T13:56:03.762Z,25.34
2018-07-23T14:01:03.067Z,25.20
2018-07-23T14:06:03.565Z,25.64
2018-07-23T14:11:03.133Z,25.56
2018-07-23T14:16:03.412Z,25.20
2018-07-23T14:21:03.923Z,25.75
2018-07-23T14:26:03.191Z,25.62
2018-07-23T14:31:03.462Z,25.95
2018-07-23T14:36:03.916Z,26.19
2018-07-23T14:41:03.483Z,26.16
2018-07-23T14:46:03.817Z,26.12
2018-07-23T14:51:03.272Z,25.95
2018-07-23T14:56:03.451Z,26.13
2018-07-23T15:01:03.720Z,26.11
2018-07-23T15:06:03.211Z,26.05
2018-07-23T15:11:04.437Z,25.79
2018-07-23T15:16:03.093Z,25.75
2018-07-23T15:21:03.616Z,26.20
2018-07-23T15:26:03.837Z,26.15
2018-07-23T15:31:03.481Z,25.51
2018-07-23T15:36:03.556Z,25.96
2018-07-23T15:41:05.612Z,26.23
2018-07-23T15:46:04.165Z,24.75
2018-07-23T15:51:03.866Z,25.07
2018-07-23T15:56:03.080Z,25.28
2018-07-23T16:01:03.401Z,24.42
2018-07-23T16:06:03.867Z,24.69
2018-07-23T16:11:03.493Z,25.00
2018-07-23T16:16:03.756Z,25.16
2018-07-23T16:21:03.281Z,25.47
2018-07-23T16:26:03.625Z,25.60
2018-07-23T16:31:04.223Z,25.75
2018-07-23T16:36:03.907Z,25.83
2018-07-23T16:41:03.917Z,25.74
2018-07-23T16:46:03.192Z,25.59
2018-07-23T16:51:09.450Z,25.69
2018-07-23T16:56:03.872Z,25.51
2018-07-23T17:01:03.165Z,25.61
2018-07-23T17:06:03.637Z,25.79
2018-07-23T17:11:03.626Z,25.46
2018-07-23T17:16:03.499Z,25.44
2018-07-23T17:21:04.093Z,25.42
2018-07-23T17:26:03.286Z,25.64
2018-07-23T17:31:03.497Z,24.93
2018-07-23T17:36:04.959Z,24.74
2018-07-23T17:41:03.567Z,24.90
2018-07-23T17:46:03.843Z,24.47
2018-07-23T17:51:03.317Z,24.85
2018-07-23T17:56:04.160Z,24.92
2018-07-23T18:01:08.836Z,25.10
2018-07-23T18:06:03.291Z,25.16
2018-07-23T18:11:03.893Z,25.35
2018-07-23T18:16:03.178Z,25.33
2018-07-23T18:21:04.095Z,25.43
2018-07-23T18:26:03.912Z,25.35
2018-07-23T18:31:03.267Z,25.23
2018-07-23T18:36:03.650Z,25.13
2018-07-23T18:41:03.239Z,24.98
2018-07-23T18:46:03.527Z,24.89
2018-07-23T18:51:03.964Z,24.74
2018-07-23T18:56:03.210Z,24.55
2018-07-23T19:06:52.504Z,24.77
2018-07-23T19:11:51.509Z,24.86
2018-07-23T19:16:51.196Z,24.71
2018-07-23T19:21:51.629Z,24.79
2018-07-23T19:26:50.630Z,24.88
2018-07-23T19:31:50.919Z,24.82
2018-07-23T19:36:51.358Z,24.97
2018-07-23T19:41:51.693Z,24.84
2018-07-23T19:46:50.875Z,24.83
2018-07-23T19:51:51.329Z,24.64
2018-07-23T19:56:50.911Z,24.58
2018-07-23T20:01:51.182Z,24.46
2018-07-23T20:06:50.707Z,24.00
2018-07-23T20:11:50.912Z,23.83
2018-07-23T20:16:51.211Z,23.78
2018-07-23T20:21:50.714Z,23.91
2018-07-23T20:26:51.258Z,23.74
2018-07-23T20:31:51.577Z,23.56
2018-07-23T20:36:51.118Z,23.24
2018-07-23T20:41:51.518Z,23.19
2018-07-23T20:46:51.519Z,23.53
2018-07-23T20:51:51.005Z,23.71
2018-07-23T20:56:50.623Z,23.71
2018-07-23T21:01:50.899Z,23.11
2018-07-23T21:06:51.431Z,23.21
2018-07-23T21:11:50.636Z,22.84
2018-07-23T21:16:50.900Z,22.71
2018-07-23T21:21:51.379Z,22.75
2018-07-23T21:26:50.973Z,22.61
2018-07-23T21:31:51.263Z,22.92
2018-07-23T21:36:50.715Z,23.17
2018-07-23T21:41:50.957Z,22.91
2018-07-23T21:46:51.273Z,23.07
2018-07-23T21:51:50.732Z,23.04
2018-07-23T21:56:51.284Z,22.25
2018-07-23T22:01:51.959Z,22.05
2018-07-23T22:06:51.071Z,22.08
2018-07-23T22:11:51.271Z,22.66
2018-07-23T22:16:51.556Z,22.42
2018-07-23T22:21:51.014Z,22.08
2018-07-23T22:26:51.565Z,22.37
2018-07-23T22:31:50.872Z,22.41
2018-07-23T22:36:51.317Z,21.82
2018-07-23T22:41:51.571Z,21.68
2018-07-23T22:46:51.301Z,21.73
2018-07-23T22:51:51.301Z,22.15
2018-07-23T22:56:55.946Z,22.07
2018-07-23T23:01:51.170Z,21.28
2018-07-23T23:06:51.695Z,21.08
2018-07-23T23:11:50.884Z,21.65
2018-07-23T23:16:51.126Z,21.89
2018-07-23T23:21:53.009Z,21.28
2018-07-23T23:26:51.285Z,21.18
2018-07-23T23:31:51.465Z,21.68
2018-07-23T23:36:50.959Z,21.18
2018-07-23T23:41:51.259Z,20.98
2018-07-23T23:46:51.523Z,20.48
2018-07-23T23:51:50.953Z,20.48
2018-07-23T23:56:51.541Z,20.58
